Time;durP1;ratioP1;P1;durP2;ratioP2;P2;SDS_P1;SDS_P2;PMS_P1;PMS_P2;Temp;Humidity;BMP_temperature;BMP_pressure;BME280_temperature;BME280_humidity;BME280_pressure;Samples;Min_cycle;Max_cycle;Signal;HPM_P1;HPM_P2
2023/11/17 00:00:55;;;;;;;6.93;1.70;;;7.30;99.90;;;;;;5019183;28;20029;-87
2023/11/17 00:03:23;;;;;;;3.47;1.67;;;7.30;99.90;;;;;;5016738;28;20092;-86
2023/11/17 00:05:49;;;;;;;3.60;1.57;;;7.30;99.90;;;;;;5019492;28;20039;-88
2023/11/17 00:08:16;;;;;;;2.90;1.70;;;7.20;99.90;;;;;;5017540;28;20564;-86
2023/11/17 00:10:41;;;;;;;3.23;1.50;;;7.30;99.90;;;;;;5017242;28;20036;-87
2023/11/17 00:13:07;;;;;;;2.20;1.30;;;7.20;99.90;;;;;;5018738;28;20037;-86
2023/11/17 00:15:33;;;;;;;3.30;1.40;;;7.20;99.90;;;;;;5014795;28;20033;-87
2023/11/17 00:17:59;;;;;;;2.57;1.60;;;7.20;99.90;;;;;;5018897;28;20036;-86
2023/11/17 00:20:24;;;;;;;6.17;1.90;;;7.20;99.90;;;;;;5017116;28;20125;-86
2023/11/17 00:22:50;;;;;;;3.20;2.20;;;7.20;99.90;;;;;;5015936;28;20386;-87
2023/11/17 00:25:17;;;;;;;3.97;2.13;;;7.20;99.90;;;;;;5016348;28;20021;-86
2023/11/17 00:27:43;;;;;;;4.87;3.57;;;7.10;99.90;;;;;;5019336;28;20384;-86
2023/11/17 00:30:13;;;;;;;5.97;4.47;;;7.10;99.90;;;;;;5014814;28;20590;-87
2023/11/17 00:32:40;;;;;;;5.90;5.30;;;7.10;99.90;;;;;;5017921;28;21412;-86
2023/11/17 00:35:07;;;;;;;6.20;5.60;;;7.10;99.90;;;;;;5014452;28;20033;-87
2023/11/17 00:37:32;;;;;;;9.47;6.60;;;7.00;99.90;;;;;;5014001;28;20026;-87
2023/11/17 00:39:58;;;;;;;8.67;7.53;;;6.90;99.90;;;;;;5014240;28;20013;-87
2023/11/17 00:42:23;;;;;;;6.17;5.00;;;6.90;99.90;;;;;;5014611;28;20032;-87
2023/11/17 00:44:49;;;;;;;6.37;5.20;;;6.80;99.90;;;;;;5014544;28;20147;-86
2023/11/17 00:47:15;;;;;;;7.10;5.30;;;6.70;99.90;;;;;;5017366;28;20659;-86
2023/11/17 00:49:42;;;;;;;5.93;5.20;;;6.70;99.90;;;;;;5015181;28;20034;-86
2023/11/17 00:52:08;;;;;;;4.97;4.03;;;6.60;99.90;;;;;;5014416;28;20026;-86
2023/11/17 00:54:42;;;;;;;4.73;4.23;;;6.60;99.90;;;;;;5016266;28;20022;-87
2023/11/17 00:57:10;;;;;;;4.73;4.20;;;6.50;99.90;;;;;;5016046;28;20083;-87
2023/11/17 00:59:39;;;;;;;6.00;4.10;;;6.50;99.90;;;;;;5015343;28;20084;-86
2023/11/17 01:02:06;;;;;;;4.70;4.10;;;6.40;99.90;;;;;;5014651;28;20682;-86
2023/11/17 01:04:32;;;;;;;5.03;4.43;;;6.50;99.90;;;;;;5014884;28;20044;-88
2023/11/17 01:06:58;;;;;;;3.90;3.37;;;6.40;99.90;;;;;;5014532;28;20017;-87
2023/11/17 01:09:27;;;;;;;3.37;2.97;;;6.40;99.90;;;;;;5020722;28;20091;-87
2023/11/17 01:11:53;;;;;;;4.10;3.43;;;6.40;99.90;;;;;;5022619;28;20030;-86
2023/11/17 01:14:20;;;;;;;3.50;2.80;;;6.30;99.90;;;;;;5021668;28;20030;-86
2023/11/17 01:16:46;;;;;;;2.53;2.10;;;6.30;99.90;;;;;;5017124;28;20037;-88
2023/11/17 01:19:12;;;;;;;2.23;1.87;;;6.30;99.90;;;;;;5015675;28;20037;-89
2023/11/17 01:21:37;;;;;;;3.30;1.90;;;6.20;99.90;;;;;;5016260;28;20034;-87
2023/11/17 01:24:03;;;;;;;1.93;1.40;;;6.10;99.90;;;;;;5013867;28;20100;-87
2023/11/17 01:26:29;;;;;;;5.53;2.00;;;6.10;99.90;;;;;;5016963;28;20040;-86
2023/11/17 01:28:55;;;;;;;1.63;1.30;;;6.00;99.90;;;;;;5014991;28;20026;-86
2023/11/17 01:31:21;;;;;;;1.90;1.33;;;6.00;99.90;;;;;;5014135;28;20033;-87
2023/11/17 01:33:50;;;;;;;1.50;1.13;;;5.90;99.90;;;;;;5016183;28;20142;-89
2023/11/17 01:36:17;;;;;;;1.57;1.30;;;5.90;99.90;;;;;;5029787;28;20028;-90
2023/11/17 01:38:43;;;;;;;4.13;1.80;;;5.90;99.90;;;;;;5047935;28;20014;-89
2023/11/17 01:41:09;;;;;;;2.67;1.73;;;5.80;99.90;;;;;;5043439;28;20048;-86
2023/11/17 01:43:35;;;;;;;1.50;1.33;;;5.70;99.90;;;;;;5016380;28;20489;-87
2023/11/17 01:46:02;;;;;;;2.13;1.20;;;5.70;99.90;;;;;;5013711;28;20121;-87
2023/11/17 01:48:28;;;;;;;1.77;1.10;;;5.50;99.90;;;;;;5015179;28;20025;-86
2023/11/17 01:50:53;;;;;;;1.77;1.37;;;5.40;99.90;;;;;;5013460;28;20089;-86
2023/11/17 01:53:19;;;;;;;1.93;1.20;;;5.40;99.90;;;;;;5017894;28;20029;-87
2023/11/17 01:55:45;;;;;;;1.40;1.10;;;5.30;99.90;;;;;;5013513;28;20034;-87
2023/11/17 01:58:12;;;;;;;1.77;1.20;;;5.30;99.90;;;;;;5014224;28;20056;-86
2023/11/17 02:00:38;;;;;;;3.60;1.30;;;5.20;99.90;;;;;;5014053;28;20041;-86
2023/11/17 02:03:05;;;;;;;2.57;1.20;;;5.20;99.90;;;;;;5017632;28;20021;-87
2023/11/17 02:05:33;;;;;;;1.40;1.20;;;5.20;99.90;;;;;;5012902;28;20375;-86
2023/11/17 02:08:16;;;;;;;1.10;1.00;;;5.10;99.90;;;;;;5013566;28;20120;-87
2023/11/17 02:11:08;;;;;;;1.60;1.50;;;5.10;99.90;;;;;;5013452;28;20017;-86
2023/11/17 02:13:39;;;;;;;1.50;1.20;;;5.00;99.90;;;;;;5013100;28;20461;-86
2023/11/17 02:16:11;;;;;;;1.30;1.20;;;5.00;99.90;;;;;;5014361;28;20079;-86
2023/11/17 02:18:40;;;;;;;1.20;1.07;;;4.90;99.90;;;;;;5015240;28;20030;-86
2023/11/17 02:21:07;;;;;;;1.43;1.20;;;4.90;99.90;;;;;;5012315;28;20026;-85
2023/11/17 02:23:36;;;;;;;1.33;1.20;;;4.90;99.90;;;;;;5014424;28;20032;-86
2023/11/17 02:26:31;;;;;;;1.37;1.17;;;4.80;99.90;;;;;;5013608;28;20060;-86
2023/11/17 02:29:23;;;;;;;1.20;1.10;;;4.70;99.90;;;;;;5015150;28;20104;-87
2023/11/17 02:31:51;;;;;;;1.10;1.00;;;4.70;99.90;;;;;;5013271;28;20084;-86
2023/11/17 02:34:16;;;;;;;2.73;1.10;;;4.70;99.90;;;;;;5012993;28;20037;-87
2023/11/17 02:36:45;;;;;;;1.67;1.20;;;4.60;99.90;;;;;;5014522;28;20427;-85
2023/11/17 02:39:14;;;;;;;1.20;1.00;;;4.60;99.90;;;;;;5014387;28;20030;-86
2023/11/17 02:41:47;;;;;;;1.97;1.20;;;4.50;99.90;;;;;;5011719;28;20041;-86
2023/11/17 02:44:15;;;;;;;1.53;1.03;;;4.50;99.90;;;;;;5013429;28;20559;-87
2023/11/17 02:46:45;;;;;;;1.80;1.13;;;4.40;99.90;;;;;;5015872;28;20471;-87
2023/11/17 02:49:22;;;;;;;1.10;1.00;;;4.40;99.90;;;;;;5018430;28;20032;-85
2023/11/17 02:51:52;;;;;;;1.27;1.00;;;4.40;99.90;;;;;;5014549;28;20040;-87
2023/11/17 02:54:26;;;;;;;1.10;1.00;;;4.30;99.90;;;;;;5014533;28;20131;-86
2023/11/17 02:56:53;;;;;;;1.10;1.00;;;4.30;99.90;;;;;;5011867;28;20030;-86
2023/11/17 02:59:19;;;;;;;1.10;1.00;;;4.30;99.90;;;;;;5015415;28;20957;-85
2023/11/17 03:01:45;;;;;;;1.00;0.90;;;4.20;99.90;;;;;;5013197;28;20041;-86
2023/11/17 03:04:15;;;;;;;0.97;0.90;;;4.20;99.90;;;;;;5013724;28;20670;-86
2023/11/17 03:06:46;;;;;;;1.07;0.97;;;4.10;99.90;;;;;;5017799;28;20626;-87
2023/11/17 03:09:22;;;;;;;0.93;0.80;;;4.10;99.90;;;;;;5026244;28;20049;-86
2023/11/17 03:11:52;;;;;;;2.43;1.00;;;4.00;99.90;;;;;;5015092;28;20029;-87
2023/11/17 03:14:18;;;;;;;1.17;1.00;;;4.00;99.90;;;;;;5013999;28;20036;-87
2023/11/17 03:16:49;;;;;;;1.10;1.00;;;4.00;99.90;;;;;;5011200;28;20045;-87
2023/11/17 03:19:15;;;;;;;1.10;0.90;;;4.00;99.90;;;;;;5013244;28;20041;-86
2023/11/17 03:21:41;;;;;;;1.23;1.13;;;3.90;99.90;;;;;;5014151;28;20037;-86
2023/11/17 03:24:14;;;;;;;1.53;1.00;;;3.90;99.90;;;;;;5013692;28;20036;-86
2023/11/17 03:26:44;;;;;;;1.30;1.20;;;3.90;99.90;;;;;;5015077;28;20051;-87
2023/11/17 03:29:14;;;;;;;1.70;1.00;;;3.90;99.90;;;;;;5012810;28;20018;-87
2023/11/17 03:31:47;;;;;;;1.10;1.00;;;3.80;99.90;;;;;;5015708;28;20040;-87
2023/11/17 03:34:15;;;;;;;2.37;1.30;;;3.90;99.90;;;;;;5016728;28;20017;-86
2023/11/17 03:36:40;;;;;;;1.30;1.20;;;3.80;99.90;;;;;;5020047;28;20108;-86
2023/11/17 03:39:12;;;;;;;1.50;1.30;;;3.80;99.90;;;;;;5016942;28;20063;-87
2023/11/17 03:41:38;;;;;;;1.60;1.30;;;3.80;99.90;;;;;;5020924;28;20033;-86
2023/11/17 03:44:06;;;;;;;1.67;1.40;;;3.80;99.90;;;;;;5019233;28;20030;-87
2023/11/17 03:46:31;;;;;;;1.40;1.10;;;3.80;99.90;;;;;;4998067;28;20029;-86
2023/11/17 03:48:57;;;;;;;1.63;1.30;;;3.80;99.90;;;;;;5017904;28;20666;-86
2023/11/17 03:51:23;;;;;;;2.03;1.40;;;3.80;99.90;;;;;;5017583;28;20026;-87
2023/11/17 03:53:48;;;;;;;1.27;1.00;;;3.70;99.90;;;;;;5018747;28;20476;-87
2023/11/17 03:56:15;;;;;;;1.30;1.20;;;3.70;99.90;;;;;;5015519;28;20115;-88
2023/11/17 03:58:40;;;;;;;1.40;1.30;;;3.70;99.90;;;;;;5018681;28;20033;-86
2023/11/17 04:01:06;;;;;;;1.47;1.30;;;3.70;99.90;;;;;;5017985;28;20029;-86
2023/11/17 04:03:32;;;;;;;1.50;1.27;;;3.70;99.90;;;;;;5016900;28;20034;-86
2023/11/17 04:05:57;;;;;;;1.20;1.10;;;3.70;99.90;;;;;;5020088;28;20021;-86
2023/11/17 04:08:23;;;;;;;1.60;1.00;;;3.70;99.90;;;;;;5015715;28;20036;-86
2023/11/17 04:10:48;;;;;;;1.87;1.20;;;3.60;99.90;;;;;;5015690;28;20029;-86
2023/11/17 04:13:14;;;;;;;1.80;1.40;;;3.70;99.90;;;;;;5019250;28;20109;-86
2023/11/17 04:15:40;;;;;;;1.57;1.40;;;3.70;99.90;;;;;;5016550;28;20114;-86
2023/11/17 04:18:06;;;;;;;1.30;1.20;;;3.60;99.90;;;;;;5015455;28;20113;-86
2023/11/17 04:20:31;;;;;;;1.60;1.23;;;3.60;99.90;;;;;;5016605;28;20160;-86
2023/11/17 04:22:57;;;;;;;1.07;0.97;;;3.60;99.90;;;;;;5017835;28;20050;-86
2023/11/17 04:25:22;;;;;;;1.33;1.00;;;3.60;99.90;;;;;;5014527;28;20092;-87
2023/11/17 04:27:49;;;;;;;1.43;1.10;;;3.60;99.90;;;;;;5015747;28;20173;-86
2023/11/17 04:30:14;;;;;;;2.67;1.30;;;3.60;99.90;;;;;;5019900;28;20025;-88
2023/11/17 04:32:40;;;;;;;2.17;1.20;;;3.60;99.90;;;;;;5045529;28;20067;-88
2023/11/17 04:35:08;;;;;;;1.43;0.90;;;3.50;99.90;;;;;;5046149;28;20018;-87
2023/11/17 04:37:35;;;;;;;0.97;0.90;;;3.50;99.90;;;;;;5026082;28;20034;-86
2023/11/17 04:40:01;;;;;;;0.93;0.90;;;3.50;99.90;;;;;;5017580;28;20053;-87
2023/11/17 04:42:27;;;;;;;0.97;0.87;;;3.50;99.90;;;;;;5017824;28;20033;-87
2023/11/17 04:44:52;;;;;;;2.23;0.90;;;3.50;99.90;;;;;;5015236;28;20689;-86
2023/11/17 04:47:18;;;;;;;1.20;0.90;;;3.50;99.90;;;;;;5015889;28;20640;-85
2023/11/17 04:49:45;;;;;;;3.43;1.00;;;3.50;99.90;;;;;;5015260;28;20112;-86
2023/11/17 04:52:11;;;;;;;1.20;1.00;;;3.50;99.90;;;;;;5015938;28;20037;-86
2023/11/17 04:54:36;;;;;;;1.27;1.10;;;3.40;99.90;;;;;;5016511;28;20030;-87
2023/11/17 04:57:02;;;;;;;1.30;1.10;;;3.40;99.90;;;;;;5015516;28;20026;-86
2023/11/17 04:59:28;;;;;;;1.33;1.20;;;3.40;99.90;;;;;;5016267;28;20401;-86
2023/11/17 05:01:53;;;;;;;1.33;1.10;;;3.40;99.90;;;;;;5015596;28;20126;-85
2023/11/17 05:04:19;;;;;;;1.30;1.10;;;3.40;99.90;;;;;;5015794;28;20059;-87
2023/11/17 05:06:44;;;;;;;1.33;1.10;;;3.50;99.90;;;;;;5019170;28;20040;-86
2023/11/17 05:09:11;;;;;;;1.20;1.00;;;3.40;99.90;;;;;;5020172;28;20013;-86
2023/11/17 05:11:41;;;;;;;1.33;1.10;;;3.40;99.90;;;;;;5020534;28;20040;-86
2023/11/17 05:14:07;;;;;;;1.40;1.10;;;3.40;99.90;;;;;;5017035;28;20029;-85
2023/11/17 05:16:34;;;;;;;1.70;1.13;;;3.40;99.90;;;;;;5015132;28;20033;-86
2023/11/17 05:19:00;;;;;;;1.77;1.43;;;3.40;99.90;;;;;;5014878;28;20479;-86
2023/11/17 05:21:25;;;;;;;2.73;1.27;;;3.40;99.90;;;;;;5014977;28;20037;-87
2023/11/17 05:23:51;;;;;;;1.80;1.43;;;3.40;99.90;;;;;;5014338;28;20025;-86
2023/11/17 05:26:17;;;;;;;1.50;1.30;;;3.50;99.90;;;;;;5013180;28;20033;-86
2023/11/17 05:28:42;;;;;;;2.03;1.30;;;3.50;99.90;;;;;;5015029;28;20022;-85
2023/11/17 05:31:08;;;;;;;3.20;2.03;;;3.40;99.90;;;;;;5015263;28;20022;-85
2023/11/17 05:33:33;;;;;;;1.90;1.47;;;3.50;99.90;;;;;;5016148;28;20022;-85
2023/11/17 05:36:01;;;;;;;2.17;1.67;;;3.50;99.90;;;;;;5015216;28;20143;-84
2023/11/17 05:38:26;;;;;;;1.93;1.70;;;3.50;99.90;;;;;;5017179;28;21324;-84
2023/11/17 05:40:52;;;;;;;2.13;1.80;;;3.50;99.90;;;;;;5018084;28;20079;-84
2023/11/17 05:43:18;;;;;;;2.10;1.80;;;3.50;99.90;;;;;;5017619;28;20025;-84
2023/11/17 05:45:45;;;;;;;2.27;1.70;;;3.60;99.90;;;;;;5017790;28;20053;-84
2023/11/17 05:48:11;;;;;;;1.83;1.57;;;3.60;99.90;;;;;;5017530;28;20033;-84
2023/11/17 05:50:37;;;;;;;2.87;1.87;;;3.60;99.90;;;;;;5017586;28;20104;-84
2023/11/17 05:53:02;;;;;;;3.00;1.80;;;3.60;99.90;;;;;;5017794;28;20021;-84
2023/11/17 05:55:28;;;;;;;2.30;1.90;;;3.70;99.90;;;;;;5016798;28;20717;-84
2023/11/17 05:57:54;;;;;;;2.83;1.90;;;3.70;99.90;;;;;;5018468;28;20026;-84
2023/11/17 06:00:20;;;;;;;2.27;1.97;;;3.70;99.90;;;;;;5016526;28;21410;-87
2023/11/17 06:02:46;;;;;;;2.87;2.00;;;3.70;99.90;;;;;;5012272;28;20401;-87
2023/11/17 06:05:14;;;;;;;2.80;2.20;;;3.70;99.90;;;;;;5012662;28;20029;-86
2023/11/17 06:07:40;;;;;;;3.03;2.30;;;3.70;99.90;;;;;;5012117;28;20058;-86
2023/11/17 06:10:06;;;;;;;2.93;2.10;;;3.70;99.90;;;;;;5012885;28;20242;-86
2023/11/17 06:12:33;;;;;;;4.00;2.20;;;3.70;99.90;;;;;;5013445;28;20040;-87
2023/11/17 06:14:59;;;;;;;2.60;2.27;;;3.70;99.90;;;;;;5012728;28;20048;-87
2023/11/17 06:17:25;;;;;;;2.40;2.00;;;3.70;99.90;;;;;;5014407;28;20030;-86
2023/11/17 06:19:50;;;;;;;2.50;2.10;;;3.70;99.90;;;;;;5015222;28;20082;-87
2023/11/17 06:22:16;;;;;;;2.20;2.00;;;3.70;99.90;;;;;;5014107;28;20075;-87
2023/11/17 06:24:41;;;;;;;2.80;2.00;;;3.70;99.90;;;;;;5013888;28;20029;-88
2023/11/17 06:27:10;;;;;;;2.87;2.13;;;3.70;99.90;;;;;;5016471;28;20113;-87
2023/11/17 06:29:37;;;;;;;2.83;2.10;;;3.70;99.90;;;;;;5019663;28;20029;-83
2023/11/17 06:32:02;;;;;;;2.47;1.90;;;3.70;99.90;;;;;;5024347;28;20038;-87
2023/11/17 06:34:28;;;;;;;2.40;2.07;;;3.80;99.90;;;;;;5011103;28;21390;-88
2023/11/17 06:36:54;;;;;;;4.57;2.00;;;3.70;99.90;;;;;;5010561;28;20095;-88
2023/11/17 06:39:23;;;;;;;3.50;2.10;;;3.80;99.90;;;;;;5010697;28;20022;-87
2023/11/17 06:41:51;;;;;;;2.60;2.20;;;3.80;99.90;;;;;;5012135;28;20033;-87
2023/11/17 06:44:20;;;;;;;2.40;2.03;;;3.80;99.90;;;;;;5013182;28;20051;-88
2023/11/17 06:46:49;;;;;;;3.30;2.10;;;3.80;99.90;;;;;;5012658;28;20028;-87
2023/11/17 06:49:18;;;;;;;2.70;2.10;;;3.80;99.90;;;;;;5013685;28;20486;-88
2023/11/17 06:51:57;;;;;;;3.27;2.30;;;3.80;99.90;;;;;;4994206;28;20116;-85
2023/11/17 06:54:24;;;;;;;4.30;2.43;;;3.80;99.90;;;;;;4992512;28;20113;-86
2023/11/17 06:56:50;;;;;;;4.70;2.40;;;3.80;99.90;;;;;;4992464;28;20093;-86
2023/11/17 06:59:17;;;;;;;2.60;2.03;;;3.90;99.90;;;;;;4993192;28;20022;-86
2023/11/17 07:01:46;;;;;;;2.70;2.00;;;3.90;99.90;;;;;;4990711;28;20091;-86
2023/11/17 07:04:12;;;;;;;2.70;2.17;;;3.90;99.90;;;;;;4991367;28;20065;-86
2023/11/17 07:06:40;;;;;;;3.37;2.57;;;3.90;99.90;;;;;;4992632;28;20046;-86
2023/11/17 07:09:16;;;;;;;3.93;2.20;;;3.90;99.90;;;;;;4993325;28;20033;-86
2023/11/17 07:11:45;;;;;;;3.00;2.00;;;4.00;99.90;;;;;;4998054;28;20026;-85
2023/11/17 07:14:12;;;;;;;4.50;2.30;;;4.00;99.90;;;;;;4997282;28;20775;-86
2023/11/17 07:16:39;;;;;;;2.70;1.70;;;4.00;99.90;;;;;;4996040;28;20030;-86
2023/11/17 07:19:08;;;;;;;3.10;2.10;;;4.10;99.90;;;;;;4995101;28;20030;-86
2023/11/17 07:21:35;;;;;;;3.63;2.00;;;4.10;99.90;;;;;;4995704;28;20030;-86
2023/11/17 07:24:02;;;;;;;3.67;2.33;;;4.10;99.90;;;;;;4997968;28;20156;-86
2023/11/17 07:26:30;;;;;;;3.00;1.80;;;4.10;99.90;;;;;;5005848;28;20041;-85
2023/11/17 07:28:56;;;;;;;2.50;2.00;;;4.10;99.90;;;;;;5023566;28;20093;-85
2023/11/17 07:31:21;;;;;;;2.23;1.70;;;4.20;99.90;;;;;;5018186;28;20034;-86
2023/11/17 07:33:47;;;;;;;2.30;1.93;;;4.20;99.90;;;;;;4994674;28;20046;-86
2023/11/17 07:36:15;;;;;;;2.67;2.00;;;4.20;99.90;;;;;;4994386;28;21488;-86
2023/11/17 07:38:42;;;;;;;2.87;2.03;;;4.20;99.90;;;;;;4995014;28;20472;-85
2023/11/17 07:41:08;;;;;;;3.10;1.97;;;4.20;99.90;;;;;;4998160;28;20709;-86
2023/11/17 07:43:34;;;;;;;2.47;1.77;;;4.20;99.90;;;;;;4993639;28;20027;-86
2023/11/17 07:45:59;;;;;;;1.93;1.63;;;4.20;99.90;;;;;;4993997;28;20034;-85
2023/11/17 07:48:25;;;;;;;2.93;1.90;;;4.20;99.90;;;;;;4977791;28;20112;-85
2023/11/17 07:50:52;;;;;;;1.93;1.73;;;4.40;99.90;;;;;;5011259;28;20035;-86
2023/11/17 07:53:21;;;;;;;3.77;2.00;;;4.40;99.90;;;;;;5014376;28;20041;-86
2023/11/17 07:55:46;;;;;;;2.40;1.93;;;4.30;99.90;;;;;;5013486;28;20033;-85
2023/11/17 07:58:12;;;;;;;3.10;2.10;;;4.40;99.90;;;;;;5013717;28;20018;-85
2023/11/17 08:00:37;;;;;;;2.80;1.83;;;4.30;99.90;;;;;;5015190;28;20045;-86
2023/11/17 08:03:04;;;;;;;2.47;1.87;;;4.30;99.90;;;;;;5014554;28;20316;-84
2023/11/17 08:05:30;;;;;;;2.10;1.73;;;4.40;99.90;;;;;;5014140;28;20030;-85
2023/11/17 08:07:56;;;;;;;2.47;1.80;;;4.40;99.90;;;;;;5013837;28;20033;-85
2023/11/17 08:10:22;;;;;;;2.80;1.80;;;4.50;99.90;;;;;;5015033;28;20033;-85
2023/11/17 08:12:48;;;;;;;2.07;1.70;;;4.50;99.90;;;;;;5014087;28;20029;-85
2023/11/17 08:15:14;;;;;;;4.37;2.07;;;4.50;99.90;;;;;;5014238;28;20049;-86
2023/11/17 08:17:40;;;;;;;2.60;2.20;;;4.50;99.90;;;;;;5014786;28;20108;-85
2023/11/17 08:20:10;;;;;;;2.73;2.27;;;4.40;99.90;;;;;;5014102;28;20029;-85
2023/11/17 08:22:36;;;;;;;3.10;2.30;;;4.40;99.90;;;;;;5014156;28;20396;-85
2023/11/17 08:25:02;;;;;;;3.30;2.40;;;4.40;99.90;;;;;;5015299;28;20030;-85
2023/11/17 08:27:28;;;;;;;3.77;2.20;;;4.40;99.90;;;;;;5011876;28;20120;-85
2023/11/17 08:29:54;;;;;;;2.80;2.50;;;4.40;99.90;;;;;;5014001;28;20022;-85
2023/11/17 08:32:19;;;;;;;2.60;2.00;;;4.40;99.90;;;;;;5014961;28;20029;-85
2023/11/17 08:34:46;;;;;;;3.17;2.47;;;4.40;99.90;;;;;;5013484;28;20092;-85
2023/11/17 08:37:12;;;;;;;2.70;2.10;;;4.40;99.90;;;;;;5014855;28;20031;-85
2023/11/17 08:39:38;;;;;;;4.53;2.70;;;4.40;99.90;;;;;;5014745;28;20037;-85
2023/11/17 08:42:04;;;;;;;3.63;2.40;;;4.40;99.90;;;;;;5012084;28;20029;-85
2023/11/17 08:44:29;;;;;;;4.70;2.20;;;4.40;99.90;;;;;;5013073;28;20542;-85
2023/11/17 08:46:56;;;;;;;3.33;2.87;;;4.40;99.90;;;;;;5014658;28;20029;-86
2023/11/17 08:49:22;;;;;;;4.60;2.57;;;4.40;99.90;;;;;;5014256;28;20331;-85
2023/11/17 08:51:47;;;;;;;3.43;2.53;;;4.40;99.90;;;;;;5013736;28;20033;-85
2023/11/17 08:54:14;;;;;;;3.53;2.60;;;4.40;99.90;;;;;;5012680;28;20044;-85
2023/11/17 08:56:40;;;;;;;2.63;2.27;;;4.50;99.90;;;;;;5013339;28;21138;-85
2023/11/17 08:59:05;;;;;;;4.00;2.60;;;4.50;99.90;;;;;;5013950;28;20021;-85
2023/11/17 09:01:32;;;;;;;4.73;2.90;;;4.50;99.90;;;;;;5014519;28;20123;-85
2023/11/17 09:03:58;;;;;;;3.40;2.70;;;4.50;99.90;;;;;;5022508;28;20032;-85
2023/11/17 09:06:24;;;;;;;4.50;2.87;;;4.60;99.90;;;;;;5022357;28;20030;-86
2023/11/17 09:08:49;;;;;;;4.93;2.40;;;4.60;99.90;;;;;;5021105;28;20041;-85
2023/11/17 09:11:15;;;;;;;2.80;2.50;;;4.60;99.90;;;;;;5015440;28;20030;-85
2023/11/17 09:13:40;;;;;;;3.07;2.43;;;4.70;99.90;;;;;;5013012;28;20112;-85
2023/11/17 09:16:07;;;;;;;2.50;2.20;;;4.70;99.90;;;;;;5017213;28;20029;-85
2023/11/17 09:18:35;;;;;;;3.13;2.37;;;4.70;99.90;;;;;;5016175;28;20033;-85
2023/11/17 09:21:05;;;;;;;3.67;3.00;;;4.70;99.90;;;;;;5016031;28;20421;-85
2023/11/17 09:23:34;;;;;;;3.53;2.80;;;4.70;99.90;;;;;;5013110;28;20030;-86
2023/11/17 09:26:03;;;;;;;4.43;2.60;;;4.70;99.90;;;;;;5020670;28;20049;-85
2023/11/17 09:28:29;;;;;;;3.27;2.60;;;4.70;99.90;;;;;;5017274;28;20725;-85
2023/11/17 09:30:56;;;;;;;2.50;2.00;;;4.60;99.90;;;;;;5011569;28;20025;-86
2023/11/17 09:33:23;;;;;;;3.20;2.00;;;4.70;99.90;;;;;;5012719;28;20112;-85
2023/11/17 09:35:49;;;;;;;2.03;1.80;;;4.70;99.90;;;;;;5014116;28;20029;-85
2023/11/17 09:38:16;;;;;;;3.00;2.20;;;4.70;99.90;;;;;;5016766;28;20025;-85
2023/11/17 09:40:42;;;;;;;2.87;2.20;;;4.70;99.90;;;;;;5019625;28;20047;-85
2023/11/17 09:43:23;;;;;;;2.47;1.90;;;4.70;99.90;;;;;;5020861;28;20021;-84
2023/11/17 09:45:54;;;;;;;2.03;1.83;;;4.80;99.90;;;;;;5018747;28;20159;-85
2023/11/17 09:48:21;;;;;;;2.60;1.93;;;4.80;99.90;;;;;;5016588;28;20037;-85
2023/11/17 09:50:50;;;;;;;2.07;1.77;;;4.80;99.90;;;;;;5014152;28;20046;-85
2023/11/17 09:53:17;;;;;;;2.20;1.40;;;4.80;99.90;;;;;;5016436;28;20026;-85
2023/11/17 09:55:44;;;;;;;2.30;1.70;;;4.80;99.90;;;;;;5016523;28;20025;-85
2023/11/17 09:58:12;;;;;;;2.40;1.70;;;4.80;99.90;;;;;;5016385;28;20533;-85
2023/11/17 10:00:41;;;;;;;2.73;1.80;;;4.80;99.90;;;;;;5015042;28;20030;-85
2023/11/17 10:03:08;;;;;;;2.57;1.70;;;4.80;99.90;;;;;;5014980;28;20017;-85
2023/11/17 10:05:34;;;;;;;2.40;1.60;;;4.80;99.90;;;;;;5014557;28;20021;-85
2023/11/17 10:08:11;;;;;;;1.60;1.40;;;4.80;99.90;;;;;;4997498;28;20021;-85
2023/11/17 10:10:47;;;;;;;3.27;1.33;;;4.80;99.90;;;;;;5015775;28;20030;-85
2023/11/17 10:13:15;;;;;;;1.80;1.47;;;4.90;99.90;;;;;;5013819;28;20029;-84
2023/11/17 10:15:51;;;;;;;2.00;1.53;;;4.90;99.90;;;;;;5012344;28;20035;-84
2023/11/17 10:18:24;;;;;;;1.90;1.60;;;5.00;99.90;;;;;;5012550;28;20101;-84
2023/11/17 10:20:50;;;;;;;2.20;1.80;;;5.00;99.90;;;;;;5012954;28;20120;-85
2023/11/17 10:23:16;;;;;;;2.43;1.80;;;5.00;99.90;;;;;;5029964;28;20014;-84
2023/11/17 10:25:43;;;;;;;3.50;1.60;;;5.00;99.90;;;;;;5030324;28;20084;-84
2023/11/17 10:28:09;;;;;;;1.83;1.50;;;5.00;99.90;;;;;;5022244;28;20048;-85
2023/11/17 10:30:41;;;;;;;2.37;1.67;;;5.10;99.90;;;;;;5005891;28;20123;-85
2023/11/17 10:33:20;;;;;;;2.23;1.60;;;5.10;99.90;;;;;;5006181;28;20037;-85
2023/11/17 10:36:10;;;;;;;2.93;1.87;;;5.10;99.90;;;;;;5006948;28;20044;-85
2023/11/17 10:38:38;;;;;;;1.90;1.60;;;5.20;99.90;;;;;;4995368;28;20040;-84
2023/11/17 10:41:17;;;;;;;2.83;2.00;;;5.30;99.90;;;;;;5008412;28;20095;-85
2023/11/17 10:43:53;;;;;;;3.17;1.77;;;5.30;99.90;;;;;;5013722;28;20034;-85
2023/11/17 10:46:26;;;;;;;2.33;1.90;;;5.40;99.90;;;;;;5017765;28;20053;-85
2023/11/17 10:48:55;;;;;;;2.83;2.00;;;5.40;99.90;;;;;;5017357;28;20026;-84
2023/11/17 10:51:21;;;;;;;4.00;2.00;;;5.50;99.90;;;;;;5019691;28;20025;-84
2023/11/17 10:54:16;;;;;;;2.90;2.10;;;5.60;99.90;;;;;;5018274;28;20145;-84
2023/11/17 10:56:44;;;;;;;2.92;2.42;;;5.60;99.90;;;;;;4995990;28;20030;-85
2023/11/17 10:59:21;;;;;;;4.00;1.93;;;5.60;99.90;;;;;;5014564;28;20052;-84
2023/11/17 11:01:48;;;;;;;5.20;2.33;;;5.50;99.90;;;;;;5016758;28;20037;-85
2023/11/17 11:04:15;;;;;;;2.60;2.17;;;5.50;99.90;;;;;;5015550;28;20029;-84
2023/11/17 11:06:44;;;;;;;3.40;2.20;;;5.50;99.90;;;;;;5016602;28;20068;-84
2023/11/17 11:09:16;;;;;;;3.40;2.17;;;5.50;99.90;;;;;;5016676;28;20062;-84
2023/11/17 11:11:48;;;;;;;4.77;2.77;;;5.40;99.90;;;;;;5016683;28;20118;-85
2023/11/17 11:14:16;;;;;;;2.93;2.20;;;5.40;99.90;;;;;;5015494;28;20068;-85
2023/11/17 11:16:46;;;;;;;3.33;2.30;;;5.50;99.90;;;;;;5014609;28;20026;-85
2023/11/17 11:19:14;;;;;;;6.00;2.77;;;5.50;99.90;;;;;;5018163;28;20574;-85
2023/11/17 11:21:40;;;;;;;5.70;2.70;;;5.50;99.90;;;;;;5015804;28;20520;-84
2023/11/17 11:24:08;;;;;;;3.03;2.50;;;5.60;99.90;;;;;;5014910;28;20024;-85
2023/11/17 11:26:36;;;;;;;4.77;3.07;;;5.60;99.90;;;;;;5014349;28;20688;-84
2023/11/17 11:29:04;;;;;;;5.03;2.30;;;5.70;99.90;;;;;;5018387;28;20026;-82
2023/11/17 11:31:32;;;;;;;2.63;1.83;;;5.80;99.90;;;;;;5021677;28;20042;-82
2023/11/17 11:33:58;;;;;;;3.57;1.80;;;5.90;99.90;;;;;;5014875;28;20038;-83
2023/11/17 11:36:24;;;;;;;2.87;2.00;;;5.80;99.90;;;;;;5011918;28;21362;-82
2023/11/17 11:38:49;;;;;;;2.20;2.00;;;5.80;99.90;;;;;;5013763;28;20186;-82
2023/11/17 11:41:22;;;;;;;3.27;1.77;;;5.90;99.90;;;;;;5014043;28;20037;-82
2023/11/17 11:43:49;;;;;;;2.47;2.00;;;5.90;99.90;;;;;;5015468;28;20538;-83
2023/11/17 11:46:16;;;;;;;2.80;2.10;;;5.90;99.90;;;;;;5013406;28;20029;-81
2023/11/17 11:48:44;;;;;;;2.33;1.80;;;6.00;99.90;;;;;;5015482;28;20785;-83
2023/11/17 11:51:11;;;;;;;4.23;2.27;;;6.20;99.90;;;;;;5012085;28;20048;-82
2023/11/17 11:53:46;;;;;;;3.30;2.20;;;6.30;99.90;;;;;;5012369;28;20099;-81
2023/11/17 11:56:14;;;;;;;2.47;1.98;;;6.40;99.90;;;;;;5012858;28;20050;-82
2023/11/17 11:58:45;;;;;;;4.47;2.67;;;6.40;99.90;;;;;;5012625;28;20045;-81
2023/11/17 12:01:14;;;;;;;3.90;2.60;;;6.40;99.90;;;;;;5012571;28;20036;-81
2023/11/17 12:03:44;;;;;;;3.10;2.50;;;6.30;99.90;;;;;;5010824;28;20037;-81
2023/11/17 12:06:10;;;;;;;4.43;2.70;;;6.30;99.90;;;;;;5012518;28;20024;-82
2023/11/17 12:08:35;;;;;;;4.10;2.90;;;6.30;99.90;;;;;;5013363;28;20029;-81
2023/11/17 12:11:13;;;;;;;4.07;2.70;;;6.30;99.90;;;;;;5014067;28;20030;-81
2023/11/17 12:13:43;;;;;;;4.63;2.97;;;6.20;99.90;;;;;;5014423;28;20029;-81
2023/11/17 12:16:11;;;;;;;3.80;3.00;;;6.20;99.90;;;;;;5013371;28;20075;-81
2023/11/17 12:18:37;;;;;;;5.27;3.30;;;6.10;99.90;;;;;;5010623;28;20041;-81
2023/11/17 12:21:17;;;;;;;3.63;2.97;;;6.00;99.90;;;;;;5012774;28;20506;-82
2023/11/17 12:23:57;;;;;;;4.57;3.00;;;6.00;99.90;;;;;;5013480;28;20030;-82
2023/11/17 12:26:27;;;;;;;4.90;3.00;;;6.10;99.90;;;;;;5011290;28;20095;-82
2023/11/17 12:28:55;;;;;;;5.83;3.97;;;6.10;99.90;;;;;;5012403;28;20053;-82
2023/11/17 12:31:22;;;;;;;4.57;3.60;;;6.10;99.90;;;;;;5010743;28;20159;-82
2023/11/17 12:33:51;;;;;;;5.50;3.30;;;6.10;99.90;;;;;;5011600;28;20030;-82
2023/11/17 12:36:21;;;;;;;5.13;3.43;;;6.10;99.90;;;;;;5014011;28;20596;-82
2023/11/17 12:38:56;;;;;;;5.30;3.40;;;6.10;99.90;;;;;;5013340;28;20045;-83
2023/11/17 12:41:23;;;;;;;3.93;3.27;;;6.00;99.90;;;;;;5011103;28;20030;-82
2023/11/17 12:43:49;;;;;;;4.33;3.07;;;6.10;99.90;;;;;;5011026;28;20276;-82
2023/11/17 12:46:15;;;;;;;4.20;3.10;;;6.00;99.90;;;;;;5012394;28;20126;-82
2023/11/17 12:48:48;;;;;;;4.00;3.10;;;5.90;99.90;;;;;;5011587;28;20102;-82
2023/11/17 12:51:30;;;;;;;4.47;3.10;;;5.90;99.90;;;;;;5008014;28;20073;-83
2023/11/17 12:54:01;;;;;;;4.87;3.27;;;5.80;99.90;;;;;;5010566;28;20036;-82
2023/11/17 12:56:27;;;;;;;3.67;2.30;;;5.80;99.90;;;;;;5010431;28;20033;-82
2023/11/17 12:58:53;;;;;;;3.87;2.20;;;5.80;99.90;;;;;;5015781;28;20098;-80
2023/11/17 13:01:20;;;;;;;6.00;3.20;;;5.70;99.90;;;;;;5016535;28;20044;-81